Time;durP1;ratioP1;P1;durP2;ratioP2;P2;SDS_P1;SDS_P2;PMS_P1;PMS_P2;Temp;Humidity;BMP_temperature;BMP_pressure;BME280_temperature;BME280_humidity;BME280_pressure;Samples;Min_cycle;Max_cycle;Signal;HPM_P1;HPM_P2
2022/01/01 00:02:16;;;;;;;;;28.50;27.00;;;;;17.68;67.68;102353.44;5070489;28;10270;-58
2022/01/01 00:04:42;;;;;;;;;32.50;32.00;;;;;17.71;67.84;102356.13;5070874;28;10426;-58
2022/01/01 00:07:08;;;;;;;;;32.25;31.25;;;;;17.71;67.70;102342.91;5071045;28;10342;-59
2022/01/01 00:09:34;;;;;;;;;34.75;32.50;;;;;17.73;67.56;102349.09;5071228;28;10280;-59
2022/01/01 00:11:59;;;;;;;;;31.00;27.25;;;;;17.71;67.77;102350.84;5051903;28;10472;-58
2022/01/01 00:14:24;;;;;;;;;38.50;35.00;;;;;17.64;67.71;102350.72;5050557;28;9515;-58
2022/01/01 00:16:49;;;;;;;;;34.50;33.00;;;;;17.72;67.43;102336.78;5050266;28;8778;-59
2022/01/01 00:19:15;;;;;;;;;36.25;32.25;;;;;17.75;67.51;102326.25;5050676;28;8815;-58
2022/01/01 00:21:41;;;;;;;;;33.25;32.25;;;;;17.77;67.38;102326.28;5050295;28;8796;-59
2022/01/01 00:24:06;;;;;;;;;38.50;33.25;;;;;17.78;67.57;102330.69;5051003;28;8915;-59
2022/01/01 00:26:32;;;;;;;;;33.00;31.75;;;;;17.75;67.66;102338.56;5048575;28;11234;-59
2022/01/01 00:28:57;;;;;;;;;34.75;33.00;;;;;17.72;67.38;102338.53;5050457;28;8804;-59
2022/01/01 00:31:25;;;;;;;;;33.25;32.00;;;;;17.73;67.46;102332.41;5050602;28;8797;-59
2022/01/01 00:33:51;;;;;;;;;33.00;31.25;;;;;17.73;67.60;102322.69;5050076;28;8770;-59
2022/01/01 00:36:16;;;;;;;;;40.25;35.25;;;;;17.79;67.35;102327.19;5048893;28;11266;-59
2022/01/01 00:38:42;;;;;;;;;35.00;33.75;;;;;17.77;67.20;102318.38;5050445;28;8842;-59
2022/01/01 00:41:08;;;;;;;;;37.75;33.75;;;;;17.78;67.30;102325.41;5049575;28;10546;-59
2022/01/01 00:43:33;;;;;;;;;37.50;33.00;;;;;17.77;67.41;102326.28;5050159;28;8788;-59
2022/01/01 00:45:59;;;;;;;;;34.25;33.25;;;;;17.72;67.26;102330.59;5052739;28;8809;-59
2022/01/01 00:48:25;;;;;;;;;38.25;33.25;;;;;17.73;67.60;102320.03;5069957;28;8774;-59
2022/01/01 00:50:53;;;;;;;;;35.50;33.00;;;;;17.71;67.37;102319.16;5069979;28;10461;-58
2022/01/01 00:53:18;;;;;;;;;38.75;33.75;;;;;17.71;67.71;102319.16;5070879;28;8818;-59
2022/01/01 00:55:44;;;;;;;;;38.75;34.00;;;;;17.67;67.54;102319.97;5068214;28;10642;-59
2022/01/01 00:58:09;;;;;;;;;39.75;35.00;;;;;17.68;67.21;102311.19;5069932;28;8790;-59
2022/01/01 01:00:34;;;;;;;;;39.00;35.25;;;;;17.69;67.78;102326.16;5067215;28;8841;-59
2022/01/01 01:03:00;;;;;;;;;35.00;32.00;;;;;17.74;67.25;102334.13;5049818;28;8780;-59
2022/01/01 01:05:25;;;;;;;;;39.25;34.25;;;;;17.76;67.43;102349.19;5050455;28;8833;-59
2022/01/01 01:07:51;;;;;;;;;40.25;36.25;;;;;17.72;67.46;102343.81;5067400;28;8797;-59
2022/01/01 01:10:16;;;;;;;;;34.25;32.25;;;;;17.72;67.64;102355.28;5069735;28;8793;-60
2022/01/01 01:12:45;;;;;;;;;34.00;32.75;;;;;17.70;67.45;102359.63;5070291;28;8778;-59
2022/01/01 01:15:17;;;;;;;;;39.00;35.25;;;;;17.74;67.28;102361.44;5074030;28;8777;-59
2022/01/01 01:17:48;;;;;;;;;36.50;33.75;;;;;17.76;67.59;102365.03;5071783;28;10626;-60
2022/01/01 01:20:14;;;;;;;;;38.00;33.50;;;;;17.82;66.96;102370.41;5074492;28;10439;-59
2022/01/01 01:22:43;;;;;;;;;38.25;34.25;;;;;17.78;67.15;102365.94;5073457;28;11222;-57
2022/01/01 01:25:09;;;;;;;;;43.00;35.50;;;;;17.77;67.37;102376.50;5074037;28;8782;-59
2022/01/01 01:27:36;;;;;;;;;37.25;33.50;;;;;17.79;67.36;102374.75;5072601;28;10554;-59
2022/01/01 01:30:08;;;;;;;;;35.75;33.00;;;;;17.80;67.46;102381.81;5073118;28;10714;-59
2022/01/01 01:32:35;;;;;;;;;40.25;35.00;;;;;17.83;67.03;102379.22;5073688;28;10643;-59
2022/01/01 01:35:00;;;;;;;;;34.00;33.00;;;;;17.76;67.52;102369.41;5073847;28;10504;-59
2022/01/01 01:37:26;;;;;;;;;36.50;33.75;;;;;17.78;67.22;102368.56;5056025;28;10657;-59
2022/01/01 01:39:51;;;;;;;;;36.50;32.50;;;;;17.74;67.34;102372.03;5053493;28;8787;-59
2022/01/01 01:42:16;;;;;;;;;32.75;32.00;;;;;17.72;67.78;102367.59;5053708;28;8810;-59
2022/01/01 01:44:45;;;;;;;;;40.25;33.25;;;;;17.63;67.77;102352.47;5052762;28;8787;-59
2022/01/01 01:47:15;;;;;;;;;38.25;34.50;;;;;17.72;67.68;102362.31;5052334;28;9588;-58
2022/01/01 01:49:43;;;;;;;;;35.00;31.75;;;;;17.81;67.37;102365.97;5053481;28;10703;-58
2022/01/01 01:52:09;;;;;;;;;36.50;34.00;;;;;17.82;67.54;102358.94;5067061;28;10511;-58
2022/01/01 01:54:35;;;;;;;;;37.00;33.25;;;;;17.81;67.26;102362.44;5073734;28;10668;-58
2022/01/01 01:57:02;;;;;;;;;33.25;31.50;;;;;17.82;67.27;102367.75;5071563;28;8817;-57
2022/01/01 01:59:28;;;;;;;;;43.75;36.75;;;;;17.83;67.32;102369.53;5072745;28;10524;-58
2022/01/01 02:01:53;;;;;;;;;32.25;30.25;;;;;17.82;67.16;102382.72;5061097;28;10545;-58
2022/01/01 02:04:18;;;;;;;;;37.25;33.75;;;;;17.84;67.08;102375.72;5053157;28;8793;-58
2022/01/01 02:06:44;;;;;;;;;34.25;32.50;;;;;17.80;67.28;102364.22;5060382;28;8821;-58
2022/01/01 02:09:11;;;;;;;;;36.00;31.50;;;;;17.82;67.03;102370.41;5073237;28;8774;-58
2022/01/01 02:11:37;;;;;;;;;32.50;28.50;;;;;17.84;67.39;102366.03;5063283;28;10555;-59
2022/01/01 02:14:09;;;;;;;;;29.75;29.25;;;;;17.88;67.21;102372.28;5052893;28;10349;-59
2022/01/01 02:19:27;;;;;;;;;35.50;33.00;;;;;17.85;67.12;102354.59;5072656;28;10442;-59
2022/01/01 02:21:54;;;;;;;;;35.75;32.00;;;;;17.81;67.26;102357.16;5072432;28;10288;-58
2022/01/01 02:24:20;;;;;;;;;36.25;33.25;;;;;17.85;67.37;102343.13;5072841;28;10564;-59
2022/01/01 02:26:46;;;;;;;;;33.50;31.25;;;;;17.82;67.05;102341.34;5069395;28;11110;-59
2022/01/01 02:29:11;;;;;;;;;32.75;30.00;;;;;17.85;67.08;102340.47;5073029;28;10361;-59
2022/01/01 02:31:37;;;;;;;;;32.25;29.75;;;;;17.87;67.02;102346.69;5072958;28;8973;-59
2022/01/01 02:34:07;;;;;;;;;32.50;31.00;;;;;17.88;66.86;102342.31;5072212;28;8778;-59
2022/01/01 02:36:36;;;;;;;;;33.00;31.00;;;;;17.86;66.94;102351.09;5062932;28;9605;-59
2022/01/01 02:39:10;;;;;;;;;32.75;31.50;;;;;17.92;67.05;102354.72;5052769;28;11129;-59
2022/01/01 02:41:35;;;;;;;;;31.00;29.75;;;;;17.91;66.91;102358.19;5051902;28;10377;-59
2022/01/01 02:44:00;;;;;;;;;32.50;30.75;;;;;17.86;66.79;102360.75;5052328;28;10436;-59
2022/01/01 02:46:26;;;;;;;;;31.25;29.75;;;;;17.89;66.82;102363.44;5052150;28;8803;-59
2022/01/01 02:48:51;;;;;;;;;22.75;22.75;;;;;17.89;66.90;102366.09;5051761;28;8787;-59
2022/01/01 02:51:16;;;;;;;;;31.50;30.75;;;;;17.84;66.99;102350.19;5058113;28;9586;-60
2022/01/01 02:53:43;;;;;;;;;26.00;25.00;;;;;17.83;67.19;102351.06;5072011;28;8884;-59
2022/01/01 02:56:08;;;;;;;;;33.50;30.00;;;;;17.83;67.13;102336.94;5069608;28;8900;-59
2022/01/01 02:58:33;;;;;;;;;31.75;29.25;;;;;17.84;66.89;102354.59;5072769;28;10450;-59
2022/01/01 03:00:59;;;;;;;;;30.75;29.00;;;;;17.83;66.90;102356.34;5071312;28;8960;-59
2022/01/01 03:03:24;;;;;;;;;30.00;28.00;;;;;17.82;67.11;102354.53;5072446;28;8913;-59
2022/01/01 03:05:49;;;;;;;;;26.75;25.00;;;;;17.88;67.00;102351.13;5068002;28;8806;-59
2022/01/01 03:08:14;;;;;;;;;31.00;29.50;;;;;17.87;66.83;102349.34;5052149;28;8791;-59
2022/01/01 03:10:40;;;;;;;;;29.00;28.00;;;;;17.85;67.08;102345.78;5051688;28;8901;-59
2022/01/01 03:13:05;;;;;;;;;28.50;28.50;;;;;17.86;66.59;102339.63;5052035;28;8897;-59
2022/01/01 03:15:30;;;;;;;;;30.00;30.00;;;;;17.90;66.98;102341.47;5051207;28;8789;-59
2022/01/01 03:17:56;;;;;;;;;30.25;28.25;;;;;17.95;66.72;102333.59;5051067;28;9605;-59
2022/01/01 03:20:22;;;;;;;;;25.50;25.50;;;;;17.86;66.98;102335.25;5052531;28;8771;-59
2022/01/01 03:22:47;;;;;;;;;33.50;27.50;;;;;17.89;67.00;102326.47;5051211;28;8851;-59
2022/01/01 03:25:12;;;;;;;;;30.25;29.50;;;;;17.92;67.09;102338.84;5050655;28;8830;-59
2022/01/01 03:27:37;;;;;;;;;26.50;25.00;;;;;17.94;66.69;102326.53;5051125;28;8827;-59
2022/01/01 03:30:03;;;;;;;;;26.25;25.00;;;;;17.95;66.55;102330.97;5051317;28;8896;-59
2022/01/01 03:32:28;;;;;;;;;29.50;28.00;;;;;17.96;66.70;102317.75;5051292;28;9664;-59
2022/01/01 03:34:55;;;;;;;;;30.00;29.25;;;;;17.88;66.86;102310.59;5051214;28;8803;-59
2022/01/01 03:37:20;;;;;;;;;26.75;25.00;;;;;17.90;66.88;102319.41;5065043;28;8909;-59
2022/01/01 03:39:45;;;;;;;;;26.00;25.25;;;;;17.96;66.75;102306.31;5071238;28;10135;-59
2022/01/01 03:42:11;;;;;;;;;23.50;23.00;;;;;17.97;66.63;102321.28;5071914;28;8779;-59
2022/01/01 03:44:36;;;;;;;;;27.00;25.50;;;;;17.90;66.87;102322.97;5070835;28;8845;-59
2022/01/01 03:47:09;;;;;;;;;28.75;25.50;;;;;17.96;66.55;102319.53;5071101;28;8784;-59
2022/01/01 03:49:35;;;;;;;;;27.00;26.00;;;;;17.95;66.43;102331.84;5071842;28;8768;-59
2022/01/01 03:52:00;;;;;;;;;26.75;24.25;;;;;17.96;66.70;102330.97;5070636;28;10220;-59
2022/01/01 03:54:26;;;;;;;;;25.75;25.75;;;;;17.94;66.55;102330.06;5071581;28;8767;-59
2022/01/01 03:56:51;;;;;;;;;29.75;28.25;;;;;17.94;66.54;102322.13;5070495;28;8787;-59
2022/01/01 03:59:16;;;;;;;;;25.00;22.75;;;;;17.86;66.62;102334.34;5071269;28;8782;-59
2022/01/01 04:01:42;;;;;;;;;27.25;26.00;;;;;17.88;67.02;102336.13;5071327;28;8787;-59
2022/01/01 04:04:09;;;;;;;;;28.25;26.25;;;;;17.87;66.80;102336.13;5071034;28;8795;-59
2022/01/01 04:06:35;;;;;;;;;30.50;25.25;;;;;17.89;66.86;102342.31;5070991;28;8755;-59
2022/01/01 04:09:00;;;;;;;;;29.25;26.00;;;;;17.89;66.93;102342.31;5071057;28;10293;-59
2022/01/01 04:11:25;;;;;;;;;26.50;26.00;;;;;17.88;66.91;102333.50;5070955;28;8779;-58
2022/01/01 04:13:50;;;;;;;;;24.25;24.25;;;;;17.96;66.49;102341.53;5070775;28;8756;-59
2022/01/01 04:16:17;;;;;;;;;25.50;25.25;;;;;18.04;66.35;102345.19;5071165;28;8768;-59
2022/01/01 04:18:43;;;;;;;;;25.25;25.00;;;;;17.97;66.61;102345.97;5070581;28;8779;-59
2022/01/01 04:21:10;;;;;;;;;25.75;24.00;;;;;17.91;66.71;102332.66;5071098;28;10208;-58
2022/01/01 04:23:37;;;;;;;;;26.00;25.25;;;;;17.82;66.97;102327.22;5071283;28;8783;-59
2022/01/01 04:26:02;;;;;;;;;25.75;23.50;;;;;17.86;66.89;102329.94;5070469;28;9842;-59
2022/01/01 04:28:28;;;;;;;;;23.00;23.00;;;;;17.82;67.05;102343.09;5070850;28;10051;-60
2022/01/01 04:30:53;;;;;;;;;25.50;24.25;;;;;17.91;66.76;102345.88;5071223;28;8783;-59
2022/01/01 04:33:18;;;;;;;;;21.00;21.00;;;;;17.81;66.98;102346.59;5070508;28;8880;-60
2022/01/01 04:35:43;;;;;;;;;22.75;22.50;;;;;17.88;66.87;102350.22;5070506;28;8786;-60
2022/01/01 04:38:22;;;;;;;;;23.00;22.50;;;;;17.89;67.13;102350.25;5071274;28;8771;-59
2022/01/01 04:40:47;;;;;;;;;21.00;20.00;;;;;17.87;66.64;102354.63;5070065;28;8783;-60
2022/01/01 04:43:12;;;;;;;;;24.75;23.25;;;;;17.91;66.74;102363.50;5070688;28;9959;-60
2022/01/01 04:45:37;;;;;;;;;26.75;24.75;;;;;17.95;66.59;102362.66;5070935;28;8853;-59
2022/01/01 04:48:03;;;;;;;;;22.25;22.25;;;;;17.95;66.87;102371.50;5070659;28;8780;-57
2022/01/01 04:50:28;;;;;;;;;20.00;20.00;;;;;17.97;66.89;102366.22;5075345;28;8776;-59
2022/01/01 04:52:55;;;;;;;;;22.25;21.00;;;;;17.95;66.71;102373.25;5074466;28;8810;-59
2022/01/01 04:55:22;;;;;;;;;24.00;23.25;;;;;17.91;66.82;102369.66;5074118;28;8763;-60
2022/01/01 04:57:48;;;;;;;;;22.25;20.25;;;;;17.95;66.83;102360.03;5074519;28;9956;-60
2022/01/01 05:00:13;;;;;;;;;20.00;18.50;;;;;17.88;66.81;102356.41;5074544;28;10010;-60
2022/01/01 05:02:38;;;;;;;;;24.25;23.25;;;;;17.97;66.76;102356.53;5074669;28;9506;-60
2022/01/01 05:05:04;;;;;;;;;26.25;24.25;;;;;17.98;66.46;102358.31;5074681;28;8774;-60
2022/01/01 05:07:29;;;;;;;;;24.25;22.50;;;;;18.03;66.59;102353.13;5074172;28;9629;-60
2022/01/01 05:09:55;;;;;;;;;25.00;22.25;;;;;17.98;66.74;102353.03;5074410;28;8891;-59
2022/01/01 05:12:20;;;;;;;;;19.50;18.75;;;;;18.00;66.66;102351.28;5074637;28;8906;-60
2022/01/01 05:14:45;;;;;;;;;20.00;18.50;;;;;18.03;66.27;102334.63;5073972;28;8890;-60
2022/01/01 05:17:12;;;;;;;;;20.75;20.75;;;;;18.08;66.07;102347.00;5074507;28;8776;-60
2022/01/01 05:19:37;;;;;;;;;23.25;22.50;;;;;17.98;66.55;102331.00;5074759;28;8763;-60
2022/01/01 05:22:03;;;;;;;;;19.00;18.75;;;;;18.05;66.37;102327.56;5073924;28;9961;-60
2022/01/01 05:24:28;;;;;;;;;20.75;19.75;;;;;18.01;66.25;102331.03;5074394;28;8897;-59
2022/01/01 05:26:53;;;;;;;;;20.75;19.75;;;;;18.02;66.57;102332.81;5073877;28;8862;-58
2022/01/01 05:29:19;;;;;;;;;27.50;24.75;;;;;18.04;66.32;102344.28;5073958;28;8779;-60
2022/01/01 05:31:44;;;;;;;;;21.25;21.00;;;;;17.98;66.64;102331.00;5073797;28;8877;-60
2022/01/01 05:34:09;;;;;;;;;24.50;23.00;;;;;17.95;66.49;102331.84;5074414;28;8775;-60
2022/01/01 05:36:34;;;;;;;;;20.75;19.75;;;;;17.92;66.58;102318.56;5073364;28;8819;-60
2022/01/01 05:39:00;;;;;;;;;22.75;20.75;;;;;18.00;66.22;102323.97;5074061;28;8775;-59
2022/01/01 05:41:25;;;;;;;;;19.75;19.75;;;;;17.98;66.44;102310.75;5073881;28;9552;-60
2022/01/01 05:43:50;;;;;;;;;19.75;19.50;;;;;17.95;66.64;102305.44;5073331;28;8783;-59
2022/01/01 05:46:16;;;;;;;;;20.25;20.00;;;;;18.00;66.52;102309.00;5074009;28;8784;-59
2022/01/01 05:48:41;;;;;;;;;18.00;18.00;;;;;17.96;66.65;102311.59;5073766;28;8775;-59
2022/01/01 05:51:08;;;;;;;;;20.75;20.50;;;;;17.86;66.81;102310.56;5073369;28;8763;-59
2022/01/01 05:53:33;;;;;;;;;21.50;19.50;;;;;17.95;66.64;102315.09;5073737;28;8821;-59
2022/01/01 05:55:58;;;;;;;;;21.50;18.75;;;;;17.94;66.69;102327.44;5073599;28;9791;-59
2022/01/01 05:58:24;;;;;;;;;19.25;18.75;;;;;17.92;66.68;102318.56;5073472;28;8756;-59
2022/01/01 06:00:49;;;;;;;;;20.25;19.00;;;;;18.02;66.50;102317.88;5072242;28;8776;-59
2022/01/01 06:03:15;;;;;;;;;19.25;19.25;;;;;17.96;66.72;102314.25;5073785;28;8783;-59
2022/01/01 06:05:41;;;;;;;;;19.00;18.75;;;;;17.96;66.69;102311.59;5072887;28;8848;-59
2022/01/01 06:08:06;;;;;;;;;15.75;15.00;;;;;17.91;66.84;102315.94;5073466;28;8775;-58
2022/01/01 06:10:32;;;;;;;;;18.50;17.00;;;;;18.05;66.25;102309.06;5072913;28;9764;-58
2022/01/01 06:12:57;;;;;;;;;20.25;20.25;;;;;18.04;66.60;102316.13;5072774;28;8830;-59
2022/01/01 06:15:23;;;;;;;;;18.00;18.00;;;;;17.95;66.44;102316.00;5073754;28;8779;-59
2022/01/01 06:17:51;;;;;;;;;19.00;18.00;;;;;17.97;66.62;102324.81;5072710;28;9304;-59
2022/01/01 06:20:16;;;;;;;;;19.50;17.50;;;;;17.85;66.80;102319.34;5073408;28;8756;-59
2022/01/01 06:22:42;;;;;;;;;19.75;19.00;;;;;17.84;66.75;102322.88;5073202;28;9792;-58
2022/01/01 06:25:08;;;;;;;;;19.50;19.50;;;;;17.85;67.27;102330.81;5072712;28;9510;-59
2022/01/01 06:27:34;;;;;;;;;17.00;17.00;;;;;17.88;67.26;102332.63;5073296;28;8775;-58
2022/01/01 06:29:59;;;;;;;;;17.25;17.25;;;;;17.86;67.02;102332.59;5073045;28;9624;-58
2022/01/01 06:32:24;;;;;;;;;21.75;18.00;;;;;17.80;67.05;102327.22;5072633;28;8810;-59
2022/01/01 06:34:50;;;;;;;;;19.50;17.25;;;;;17.90;66.94;102330.00;5073032;28;8748;-59
2022/01/01 06:37:15;;;;;;;;;19.50;17.25;;;;;17.95;66.78;102337.13;5072882;28;8910;-59
2022/01/01 06:39:41;;;;;;;;;16.75;16.75;;;;;17.88;67.04;102331.75;5072181;28;8748;-58
2022/01/01 06:42:06;;;;;;;;;17.00;16.00;;;;;17.89;66.66;102331.75;5073189;28;8803;-59
2022/01/01 06:44:32;;;;;;;;;16.75;15.75;;;;;17.87;66.91;102330.84;5072931;28;8768;-59
2022/01/01 06:46:58;;;;;;;;;17.50;17.50;;;;;18.00;66.67;102329.25;5072030;28;8803;-59
2022/01/01 06:49:23;;;;;;;;;14.75;13.75;;;;;17.91;66.53;102324.75;5072800;28;9700;-59
2022/01/01 06:51:49;;;;;;;;;15.75;13.50;;;;;17.95;66.63;102337.13;5072538;28;8810;-59
2022/01/01 06:54:14;;;;;;;;;16.50;14.00;;;;;17.98;66.48;102321.31;5071944;28;8784;-59
2022/01/01 06:56:39;;;;;;;;;16.00;16.00;;;;;17.95;66.46;102325.69;5072550;28;8780;-58
2022/01/01 06:59:05;;;;;;;;;20.50;18.75;;;;;18.07;66.32;102337.31;5072384;28;8792;-59
2022/01/01 07:01:30;;;;;;;;;13.75;13.75;;;;;17.86;66.86;102337.88;5072015;28;8768;-59
2022/01/01 07:03:56;;;;;;;;;19.75;17.25;;;;;17.98;66.82;102344.22;5072303;28;8763;-59
2022/01/01 07:06:21;;;;;;;;;18.00;17.75;;;;;17.96;66.61;102344.19;5072642;28;8763;-59
2022/01/01 07:08:47;;;;;;;;;15.00;15.00;;;;;17.84;67.03;102341.38;5071575;28;9690;-58
2022/01/01 07:11:12;;;;;;;;;17.00;17.00;;;;;17.80;67.28;102337.78;5072293;28;8802;-58
2022/01/01 07:13:38;;;;;;;;;19.00;19.00;;;;;17.91;66.76;102337.06;5072322;28;8851;-59
2022/01/01 07:16:04;;;;;;;;;15.50;13.75;;;;;17.86;66.96;102345.81;5071662;28;8794;-58
2022/01/01 07:18:29;;;;;;;;;15.75;14.50;;;;;17.92;66.54;102349.41;5072651;28;8783;-59
2022/01/01 07:20:55;;;;;;;;;14.00;14.00;;;;;17.87;67.11;102351.97;5071386;28;9544;-59
2022/01/01 07:23:20;;;;;;;;;16.50;16.50;;;;;17.96;66.60;102352.09;5071858;28;8771;-59
2022/01/01 07:25:45;;;;;;;;;14.25;14.00;;;;;18.03;66.64;102345.19;5071877;28;8772;-59
2022/01/01 07:28:14;;;;;;;;;15.75;15.75;;;;;18.01;66.28;102345.16;5071429;28;8764;-59
2022/01/01 07:30:39;;;;;;;;;15.00;12.50;;;;;18.00;66.67;102346.00;5071838;28;8756;-59
2022/01/01 07:33:05;;;;;;;;;11.25;11.25;;;;;18.01;66.71;102355.72;5071703;28;9496;-59
2022/01/01 07:35:32;;;;;;;;;16.00;16.00;;;;;17.90;66.99;102345.84;5071190;28;8787;-59
2022/01/01 07:37:57;;;;;;;;;13.00;13.00;;;;;18.04;66.70;102352.22;5071306;28;8760;-60
2022/01/01 07:40:24;;;;;;;;;16.25;15.75;;;;;17.97;66.78;102350.34;5072012;28;9536;-59
2022/01/01 07:42:49;;;;;;;;;14.00;13.00;;;;;17.99;66.69;102349.53;5070923;28;8775;-59
2022/01/01 07:45:15;;;;;;;;;10.25;10.25;;;;;17.91;66.92;102352.91;5071594;28;9771;-59
2022/01/01 07:47:40;;;;;;;;;15.00;14.00;;;;;17.85;66.96;102353.69;5071372;28;8767;-59
2022/01/01 07:50:07;;;;;;;;;14.25;13.25;;;;;17.96;66.56;102348.59;5070882;28;9632;-59
2022/01/01 07:52:33;;;;;;;;;13.25;13.25;;;;;17.88;66.67;102348.47;5071390;28;9001;-59
2022/01/01 07:54:58;;;;;;;;;16.00;14.50;;;;;17.88;66.58;102345.84;5071305;28;9633;-59
2022/01/01 07:57:24;;;;;;;;;11.75;11.75;;;;;17.95;67.01;102350.34;5070759;28;8791;-60
2022/01/01 07:59:49;;;;;;;;;14.00;13.25;;;;;18.10;66.51;102349.69;5071222;28;8791;-58
2022/01/01 08:02:14;;;;;;;;;13.50;11.50;;;;;18.00;66.81;102348.66;5071427;28;8774;-59
2022/01/01 08:04:39;;;;;;;;;12.50;10.00;;;;;17.99;66.53;102349.53;5070582;28;8759;-59
2022/01/01 08:07:05;;;;;;;;;13.25;13.00;;;;;17.88;66.77;102351.13;5071494;28;8756;-59
2022/01/01 08:09:30;;;;;;;;;13.25;13.25;;;;;18.01;66.78;102355.72;5071133;28;9456;-59
2022/01/01 08:11:55;;;;;;;;;11.25;10.00;;;;;17.98;66.74;102360.06;5070710;28;8876;-59
2022/01/01 08:14:27;;;;;;;;;12.50;12.00;;;;;17.98;66.68;102360.06;5071421;28;8772;-59
2022/01/01 08:16:56;;;;;;;;;11.00;11.00;;;;;17.92;66.92;102360.84;5071298;28;8776;-59
2022/01/01 08:19:21;;;;;;;;;10.25;10.25;;;;;17.97;66.56;102367.09;5070669;28;9450;-59
2022/01/01 08:21:47;;;;;;;;;13.75;13.00;;;;;18.01;66.80;102368.03;5070992;28;10288;-59
2022/01/01 08:24:12;;;;;;;;;10.25;10.25;;;;;18.00;66.75;102364.50;5070124;28;9522;-59
2022/01/01 08:26:37;;;;;;;;;10.50;10.25;;;;;18.05;66.81;102365.47;5071134;28;8787;-59
2022/01/01 08:29:03;;;;;;;;;13.00;12.75;;;;;18.15;66.11;102364.75;5071028;28;8771;-59
2022/01/01 08:31:28;;;;;;;;;12.00;11.25;;;;;17.95;66.50;102365.31;5070664;28;9533;-59
2022/01/01 08:33:53;;;;;;;;;9.25;8.25;;;;;17.99;66.71;102368.03;5070641;28;8848;-60
2022/01/01 08:36:18;;;;;;;;;11.25;11.25;;;;;17.88;66.96;102359.06;5070915;28;8815;-59
2022/01/01 08:38:44;;;;;;;;;12.75;11.00;;;;;17.94;66.88;102351.22;5070383;28;8779;-59
2022/01/01 08:41:09;;;;;;;;;12.50;11.00;;;;;17.92;66.99;102342.34;5070633;28;8852;-59
2022/01/01 08:43:34;;;;;;;;;12.75;12.75;;;;;17.95;66.94;102342.44;5071062;28;8775;-58
2022/01/01 08:46:00;;;;;;;;;15.25;12.50;;;;;18.09;66.12;102332.03;5070380;28;8798;-59
2022/01/01 08:48:25;;;;;;;;;13.50;12.75;;;;;18.05;66.42;102340.78;5070443;28;8952;-58
2022/01/01 08:50:50;;;;;;;;;12.00;12.00;;;;;18.08;66.22;102325.88;5070839;28;8776;-59
2022/01/01 08:53:16;;;;;;;;;11.50;11.50;;;;;17.96;66.89;102335.38;5070000;28;8795;-59
2022/01/01 08:55:41;;;;;;;;;10.25;10.25;;;;;17.99;66.81;102332.78;5070862;28;8772;-59
2022/01/01 08:58:06;;;;;;;;;10.75;10.75;;;;;17.99;66.48;102320.47;5070884;28;8861;-59
2022/01/01 09:00:32;;;;;;;;;11.25;11.25;;;;;18.04;66.75;102326.69;5069914;28;8833;-59
2022/01/01 09:02:57;;;;;;;;;13.25;10.25;;;;;17.97;66.76;102321.28;5070547;28;8842;-59
2022/01/01 09:05:24;;;;;;;;;10.25;10.25;;;;;17.89;66.86;102321.16;5070707;28;8766;-59
2022/01/01 09:07:49;;;;;;;;;11.25;11.25;;;;;17.91;67.19;102321.22;5069636;28;8921;-59
2022/01/01 09:10:23;;;;;;;;;10.75;9.50;;;;;17.94;66.66;102326.53;5070503;28;10099;-59
2022/01/01 09:12:49;;;;;;;;;10.25;10.25;;;;;17.93;67.13;102328.28;5070488;28;8808;-59
2022/01/01 09:15:19;;;;;;;;;13.75;13.00;;;;;17.89;67.10;102321.16;5070072;28;9539;-58
2022/01/01 09:17:44;;;;;;;;;12.00;12.00;;;;;17.98;66.97;102315.16;5070517;28;8764;-59
2022/01/01 09:20:09;;;;;;;;;9.75;9.75;;;;;17.97;66.70;102316.00;5070340;28;9985;-58
2022/01/01 09:22:35;;;;;;;;;10.75;10.25;;;;;17.94;67.05;102315.97;5070029;28;8772;-59
2022/01/01 09:25:06;;;;;;;;;11.00;11.00;;;;;17.94;66.62;102314.22;5070079;28;8776;-58
2022/01/01 09:27:32;;;;;;;;;11.25;11.25;;;;;17.90;66.91;102303.56;5070153;28;8844;-59
2022/01/01 09:29:57;;;;;;;;;10.25;10.25;;;;;18.02;66.98;102296.72;5069903;28;9429;-59
2022/01/01 09:32:22;;;;;;;;;10.25;9.50;;;;;18.05;66.41;102294.13;5070814;28;8799;-59
2022/01/01 09:34:47;;;;;;;;;11.50;11.50;;;;;17.99;66.73;102290.50;5071585;28;8798;-59
2022/01/01 09:37:13;;;;;;;;;10.00;10.00;;;;;17.98;67.04;102294.00;5073711;28;9542;-58
2022/01/01 09:39:38;;;;;;;;;10.50;10.25;;;;;18.01;66.74;102280.81;5074367;28;8796;-59
2022/01/01 09:42:04;;;;;;;;;11.00;10.75;;;;;17.91;66.78;102271.91;5073324;28;8898;-59
2022/01/01 09:44:35;;;;;;;;;4.00;4.00;;;;;18.08;66.72;102280.94;5073707;28;9588;-58
2022/01/01 09:47:01;;;;;;;;;12.00;10.00;;;;;18.07;66.46;102273.88;5073654;28;8763;-59
2022/01/01 09:49:26;;;;;;;;;13.25;12.00;;;;;18.04;66.40;102275.59;5073131;28;9472;-59
2022/01/01 09:51:51;;;;;;;;;10.25;10.00;;;;;18.12;66.34;102277.47;5073551;28;8838;-58
2022/01/01 09:54:16;;;;;;;;;10.25;10.00;;;;;17.99;66.50;102288.75;5073958;28;8767;-59
2022/01/01 09:56:42;;;;;;;;;9.75;9.75;;;;;18.02;66.71;102296.72;5072971;28;8784;-58
2022/01/01 09:59:07;;;;;;;;;11.67;10.00;;;;;17.95;67.06;102280.75;5073885;28;8788;-59
2022/01/01 10:01:34;;;;;;;;;10.75;9.50;;;;;18.00;67.10;102286.97;5073935;28;8763;-59
2022/01/01 10:03:59;;;;;;;;;10.00;10.00;;;;;18.07;66.72;102294.16;5072733;28;8775;-58
2022/01/01 10:06:29;;;;;;;;;8.75;8.75;;;;;18.05;66.66;102293.22;5074122;28;10128;-59
2022/01/01 10:09:02;;;;;;;;;12.25;11.25;;;;;18.05;66.63;102295.88;5073055;28;8890;-59
2022/01/01 10:11:30;;;;;;;;;11.50;10.50;;;;;18.05;66.58;102287.94;5073266;28;9457;-60
2022/01/01 10:13:55;;;;;;;;;10.25;10.25;;;;;18.02;66.67;102295.81;5073077;28;9435;-60
2022/01/01 10:16:21;;;;;;;;;9.75;9.75;;;;;18.13;66.47;102296.88;5073476;28;9488;-60
2022/01/01 10:18:50;;;;;;;;;10.00;9.00;;;;;18.12;66.12;102300.38;5072642;28;8860;-60
2022/01/01 10:21:20;;;;;;;;;9.25;8.25;;;;;17.99;66.64;102296.69;5073595;28;8779;-60
2022/01/01 10:23:49;;;;;;;;;9.00;8.50;;;;;17.97;66.90;102300.16;5072704;28;9476;-59
2022/01/01 10:29:08;;;;;;;;;12.00;9.25;;;;;17.92;67.20;102302.72;5072945;28;9283;-60
2022/01/01 10:31:35;;;;;;;;;10.00;10.00;;;;;17.96;66.82;102308.97;5072514;28;9323;-60
2022/01/01 10:34:01;;;;;;;;;10.00;9.75;;;;;17.97;67.14;102303.69;5073004;28;9395;-60
2022/01/01 10:36:30;;;;;;;;;12.50;8.50;;;;;17.99;66.92;102296.69;5073263;28;10223;-60
2022/01/01 10:39:07;;;;;;;;;9.75;9.75;;;;;18.05;66.90;102291.47;5071889;28;9392;-60
2022/01/01 10:41:43;;;;;;;;;11.00;10.75;;;;;18.14;66.09;102299.53;5073249;28;9388;-59
2022/01/01 10:44:09;;;;;;;;;9.00;9.00;;;;;18.07;66.78;102296.78;5072796;28;9571;-59
2022/01/01 10:46:36;;;;;;;;;9.00;7.50;;;;;17.99;66.95;102288.75;5071906;28;9464;-59
2022/01/01 10:52:32;;;;;;;;;11.00;10.00;;;;;18.03;66.92;102276.47;5048518;28;9586;-59
2022/01/01 10:55:03;;;;;;;;;4.25;4.00;;;;;18.10;66.73;102268.66;5072758;28;9319;-59
2022/01/01 10:57:33;;;;;;;;;11.75;10.50;;;;;18.04;66.62;102270.28;5072605;28;9485;-58
2022/01/01 11:00:12;;;;;;;;;9.00;9.00;;;;;18.10;66.69;102286.25;5071828;28;9473;-59
2022/01/01 11:02:41;;;;;;;;;8.75;8.75;;;;;18.05;66.67;102283.53;5072762;28;9403;-59
2022/01/01 11:05:07;;;;;;;;;10.00;10.00;;;;;18.10;66.52;102273.03;5072658;28;9326;-59
2022/01/01 11:07:33;;;;;;;;;12.75;12.50;;;;;18.11;66.29;102264.25;5071742;28;9388;-59
2022/01/01 11:09:59;;;;;;;;;11.25;10.75;;;;;18.05;66.66;102265.03;5072200;28;9581;-59
2022/01/01 11:12:28;;;;;;;;;11.00;9.75;;;;;18.06;66.81;102260.66;5072112;28;9443;-59
2022/01/01 11:14:55;;;;;;;;;9.75;8.75;;;;;18.12;66.33;102258.06;5071206;28;10313;-58
2022/01/01 11:17:22;;;;;;;;;6.00;6.00;;;;;18.12;66.28;102255.44;5072533;28;9318;-59
2022/01/01 11:19:48;;;;;;;;;11.75;9.75;;;;;18.10;66.86;102262.47;5071647;28;9329;-59
2022/01/01 11:22:15;;;;;;;;;8.00;8.00;;;;;18.13;66.37;102246.66;5071613;28;9382;-59